Latest Weather Observations for Salmon Gums RS

IDW60801

Issued at 11:32 pm WST Sunday 26 April 2015 (issued every 30 minutes, with the page automatically refreshed every 10 minutes)

About weather observations | Map of weather stations | Latest weather observations for WA | Other Formats
Station Details ID: 012071 Name: SALMON GUMS RES.STN. Lat: -32.99 Lon: 121.62 Height: 249.0 m
Data from the previous 72 hours. | See also: Recent months at Salmon Gums RS
Date/Time
WST
Temp
°C
App
Temp
°C
Dew
Point
Rel
Hum
%
Delta-T
°C
Wind Press
QNH
hPa
Press
MSL
hPa
Rain
since 9 am
mm
Dir
 
Spd
km/h
Gust
km/h
Spd
kts
Gust
kts
26/11:30pm 8.5 6.7 7.3 92 0.6 ESE 6 6 3 3 - - 0.0
26/11:00pm 9.1 7.8 7.7 91 0.7 ESE 4 6 2 3 - - 0.0
26/10:30pm 9.0 7.3 7.5 90 0.7 ESE 6 7 3 4 - - 0.0
26/10:00pm 10.5 9.1 8.8 89 0.8 E 6 9 3 5 - - 0.0
26/09:30pm 11.0 9.5 9.1 88 1.0 ESE 7 9 4 5 - - 0.0
26/09:00pm 11.4 9.9 9.3 87 1.1 SE 7 11 4 6 - - 0.0
26/08:30pm 12.1 10.4 9.7 85 1.2 SE 9 11 5 6 - - 0.0
26/08:00pm 12.8 10.7 9.6 81 1.7 SE 11 17 6 9 - - 0.0
26/07:30pm 13.4 10.9 9.6 78 2.0 SE 13 17 7 9 - - 0.0
26/07:00pm 14.1 11.5 9.3 73 2.5 SSE 13 20 7 11 - - 0.0
26/06:30pm 14.1 11.7 8.5 69 2.8 SSE 11 15 6 8 - - 0.0
26/06:00pm 12.8 11.7 5.0 59 3.7 CALM 0 0 0 0 - - 0.0
26/05:30pm 14.3 12.1 5.1 54 4.4 SSE 6 6 3 3 - - 0.0
26/05:00pm 16.6 14.5 5.9 49 5.3 SE 6 7 3 4 - - 0.0
26/04:30pm 17.6 14.8 5.2 44 6.0 SE 9 13 5 7 - - 0.0
26/04:00pm 18.7 14.3 4.8 40 6.8 SE 17 26 9 14 - - 0.0
26/03:30pm 19.3 16.8 3.9 36 7.4 WSW 6 7 3 4 - - 0.0
26/03:00pm 18.1 16.1 4.3 40 6.6 ENE 4 6 2 3 - - 0.0
26/02:30pm 19.1 16.0 3.7 36 7.4 ESE 9 15 5 8 - - 0.0
26/02:00pm 19.2 17.1 3.8 36 7.4 WSW 4 7 2 4 - - 0.0
26/01:30pm 17.7 16.4 4.3 41 6.4 CALM 0 2 0 1 - - 0.0
26/01:00pm 17.2 15.0 5.2 45 5.8 E 6 11 3 6 - - 0.0
26/12:30pm 17.3 15.4 4.9 44 6.0 NNE 4 9 2 5 - - 0.0
26/12:00pm 18.2 16.7 6.7 47 5.8 N 4 9 2 5 - - 0.0
26/11:30am 16.8 14.4 5.4 47 5.5 NE 7 15 4 8 - - 0.0
26/11:00am 17.6 14.6 5.9 46 5.8 NE 11 17 6 9 - - 0.0
26/10:30am 16.9 13.7 4.9 45 5.8 ENE 11 15 6 8 - - 0.0
26/10:00am 15.7 14.1 8.7 63 3.6 N 7 13 4 7 - - 0.0
26/09:30am 15.2 13.4 9.3 68 3.1 ENE 9 15 5 8 - - 0.0
26/09:00am 14.6 13.0 10.2 75 2.3 NE 9 13 5 7 - - 0.0
26/08:30am 12.5 11.8 11.4 93 0.6 ENE 6 9 3 5 - - 0.0
26/08:00am 9.0 8.6 8.2 95 0.4 CALM 0 0 0 0 - - 0.0
26/07:30am 5.3 4.1 4.6 95 0.3 CALM 0 0 0 0 - - 0.0
26/07:00am 1.5 -0.4 0.6 94 0.3 CALM 0 0 0 0 - - 0.0
26/06:30am 0.7 -1.3 -0.2 94 0.3 CALM 0 0 0 0 - - 0.0
26/06:00am 0.6 -1.4 -0.3 94 0.3 CALM 0 6 0 3 - - 0.0
26/05:30am 0.8 -1.2 -0.2 93 0.4 CALM 0 0 0 0 - - 0.0
26/05:00am 1.1 -0.9 0.1 93 0.4 CALM 0 0 0 0 - - 0.0
26/04:30am 1.1 -0.9 0.1 93 0.4 CALM 0 0 0 0 - - 0.0
26/04:00am 1.2 -0.8 0.0 92 0.4 CALM 0 0 0 0 - - 0.0
26/03:30am 1.5 -0.4 0.3 92 0.4 CALM 0 0 0 0 - - 0.0
26/03:00am 1.8 -0.1 0.6 92 0.5 CALM 0 0 0 0 - - 0.0
26/02:30am 1.8 -0.1 0.5 91 0.5 CALM 0 0 0 0 - - 0.0
26/02:00am 2.3 0.5 1.0 91 0.5 CALM 0 0 0 0 - - 0.0
26/01:30am 2.8 1.0 1.3 90 0.6 CALM 0 0 0 0 - - 0.0
26/01:00am 3.3 1.6 1.8 90 0.6 CALM 0 0 0 0 - - 0.0
26/12:30am 3.7 2.0 2.1 89 0.6 CALM 0 0 0 0 - - 0.0
26/12:00am 4.4 2.9 2.8 89 0.7 CALM 0 0 0 0 - - 0.0
 
Date/Time
WST
Temp
°C
App
Temp
°C
Dew
Point
Rel
Hum
%
Delta-T
°C
Wind Press
QNH
hPa
Press
MSL
hPa
Rain
since 9 am
mm
Dir
 
Spd
km/h
Gust
km/h
Spd
kts
Gust
kts
25/11:30pm 5.0 3.5 3.2 88 0.8 CALM 0 0 0 0 - - 0.0
25/11:00pm 5.7 4.3 3.7 87 0.9 CALM 0 0 0 0 - - 0.0
25/10:30pm 6.5 5.3 4.5 87 0.9 CALM 0 0 0 0 - - 0.0
25/10:00pm 6.9 5.7 4.6 85 1.0 CALM 0 2 0 1 - - 0.0
25/09:30pm 8.2 6.5 5.7 84 1.1 SE 4 6 2 3 - - 0.0
25/09:00pm 9.2 7.5 5.8 79 1.6 SE 4 6 2 3 - - 0.0
25/08:30pm 10.5 8.1 6.8 78 1.8 SE 9 9 5 5 - - 0.0
25/08:00pm 10.9 8.5 7.0 77 1.9 SE 9 11 5 6 - - 0.0
25/07:30pm 11.9 9.5 7.2 73 2.3 SSE 9 11 5 6 - - 0.0
25/07:00pm 13.1 10.9 8.0 71 2.6 SSE 9 11 5 6 - - 0.0
25/06:30pm 13.9 11.3 7.9 67 3.0 SSE 11 13 6 7 - - 0.0
25/06:00pm 14.6 12.0 7.9 64 3.4 SE 11 15 6 8 - - 0.0
25/05:30pm 15.4 12.4 7.7 60 3.9 SE 13 20 7 11 - - 0.0
25/05:00pm 15.9 12.1 7.7 58 4.2 SSE 17 22 9 12 - - 0.0
25/04:30pm 16.2 13.7 6.6 53 4.8 SE 9 13 5 7 - - 0.0
25/04:00pm 16.7 14.2 6.5 51 5.1 ESE 9 19 5 10 - - 0.0
25/03:30pm 16.8 14.6 6.0 49 5.3 ESE 7 9 4 5 - - 0.0
25/03:00pm 16.7 13.7 6.2 50 5.2 SE 11 17 6 9 - - 0.0
25/02:30pm 16.8 14.3 6.6 51 5.1 SE 9 13 5 7 - - 0.0
25/02:00pm 17.0 14.9 6.5 50 5.2 SE 7 13 4 7 - - 0.0
25/01:30pm 16.5 14.6 6.6 52 4.9 SE 6 13 3 7 - - 0.0
25/01:00pm 16.1 14.1 7.1 55 4.5 ESE 7 13 4 7 - - 0.0
25/12:30pm 15.9 14.0 7.7 58 4.2 ESE 7 13 4 7 - - 0.0
25/12:00pm 15.6 13.7 7.6 59 4.0 E 7 15 4 8 - - 0.0
25/11:30am 15.2 13.5 7.7 61 3.8 ESE 6 9 3 5 - - 0.0
25/11:00am 15.0 12.6 7.1 59 3.9 ESE 9 17 5 9 - - 0.0
25/10:30am 15.1 13.6 9.0 67 3.2 ESE 7 13 4 7 - - 0.0
25/10:00am 14.9 13.2 8.2 64 3.4 ESE 7 13 4 7 - - 0.0
25/09:30am 14.0 13.9 9.4 74 2.4 CALM 0 2 0 1 - - 0.0
25/09:00am 13.2 12.4 9.6 79 1.9 ENE 4 7 2 4 - - 0.0
25/08:30am 12.6 12.1 10.8 89 1.0 ENE 4 6 2 3 - - 0.0
25/08:00am 11.2 11.3 10.1 93 0.6 CALM 0 0 0 0 - - 0.0
25/07:30am 10.3 10.2 9.4 94 0.5 CALM 0 0 0 0 - - 0.0
25/07:00am 8.9 8.4 8.0 94 0.4 CALM 0 0 0 0 - - 0.0
25/06:30am 7.3 6.4 6.2 93 0.5 CALM 0 0 0 0 - - 0.0
25/06:00am 8.4 7.4 7.5 94 0.4 SW 2 4 1 2 - - 0.0
25/05:30am 8.0 6.5 6.9 93 0.5 SW 4 4 2 2 - - 0.0
25/05:00am 9.0 7.8 7.9 93 0.5 SSW 4 6 2 3 - - 0.0
25/04:30am 8.9 8.4 7.8 93 0.5 CALM 0 0 0 0 - - 0.0
25/04:00am 8.4 7.0 7.3 93 0.5 W 4 6 2 3 - - 0.0
25/03:30am 7.4 5.4 6.3 93 0.5 W 6 7 3 4 - - 0.0
25/03:00am 6.2 4.4 5.2 93 0.4 W 4 6 2 3 - - 0.0
25/02:30am 4.8 2.6 3.6 92 0.5 W 4 6 2 3 - - 0.0
25/02:00am 4.5 2.7 3.2 91 0.5 W 2 4 1 2 - - 0.0
25/01:30am 4.6 2.4 3.1 90 0.6 WSW 4 6 2 3 - - 0.0
25/01:00am 5.7 3.6 4.0 89 0.7 SSW 4 6 2 3 - - 0.0
25/12:30am 7.2 6.1 5.2 87 0.9 CALM 0 0 0 0 - - 0.0
25/12:00am 9.3 8.7 7.4 88 0.9 CALM 0 0 0 0 - - 0.0
 
Date/Time
WST
Temp
°C
App
Temp
°C
Dew
Point
Rel
Hum
%
Delta-T
°C
Wind Press
QNH
hPa
Press
MSL
hPa
Rain
since 9 am
mm
Dir
 
Spd
km/h
Gust
km/h
Spd
kts
Gust
kts
24/11:30pm 9.7 9.2 7.8 88 0.9 CALM 0 0 0 0 - - 0.0
24/11:00pm 9.1 8.4 7.1 87 1.0 CALM 0 0 0 0 - - 0.0
24/10:30pm 9.4 7.9 6.8 84 1.2 SSW 4 6 2 3 - - 0.0
24/10:00pm 10.8 10.3 7.9 82 1.4 CALM 0 0 0 0 - - 0.0
24/09:30pm 11.3 9.7 8.2 81 1.5 SSW 6 7 3 4 - - 0.0
24/09:00pm 11.3 10.0 7.8 79 1.7 S 4 7 2 4 - - 0.0
24/08:30pm 11.8 10.3 8.3 79 1.7 S 6 9 3 5 - - 0.0
24/08:00pm 12.0 9.6 8.5 79 1.8 S 11 17 6 9 - - 0.0
24/07:30pm 11.5 9.0 8.2 80 1.6 S 11 15 6 8 - - 0.0
24/07:00pm 11.5 9.2 7.6 77 1.9 S 9 13 5 7 - - 0.0
24/06:30pm 12.3 8.9 7.6 73 2.3 S 15 20 8 11 - - 0.0
24/06:00pm 12.7 9.3 7.8 72 2.4 S 15 22 8 12 - - 0.0
24/05:30pm 13.4 8.7 7.8 69 2.8 SSE 22 32 12 17 - - 0.0
24/05:00pm 14.4 10.4 6.5 59 3.9 SSE 17 22 9 12 - - 0.0
24/04:30pm 14.6 9.9 5.9 56 4.2 SSE 20 28 11 15 - - 0.0
24/04:00pm 15.3 10.6 6.1 54 4.5 SSE 20 28 11 15 - - 0.0
24/03:30pm 15.7 11.2 5.9 52 4.8 SSE 19 24 10 13 - - 0.0
24/03:00pm 15.6 10.5 6.1 53 4.6 SSE 22 30 12 16 - - 0.0
24/02:30pm 15.2 10.8 7.3 59 4.0 SSE 20 28 11 15 - - 0.0
24/02:00pm 15.1 9.8 6.7 57 4.1 S 24 37 13 20 - - 0.0
24/01:30pm 14.8 10.4 6.4 57 4.1 SSE 19 24 10 13 - - 0.0
24/01:00pm 14.8 10.6 5.6 54 4.4 S 17 26 9 14 - - 0.0
24/12:30pm 15.8 12.5 6.5 54 4.6 SSE 13 20 7 11 - - 0.0
24/12:00pm 15.0 11.6 7.5 61 3.8 S 15 24 8 13 - - 0.0
24/11:30am 13.5 8.5 6.4 62 3.4 S 22 32 12 17 - - 0.0
24/11:00am 13.6 9.9 6.5 62 3.5 S 15 24 8 13 - - 0.0
24/10:30am 12.8 8.8 6.6 66 3.0 SSE 17 26 9 14 - - 0.0
24/10:00am 13.0 9.6 7.5 69 2.7 SSE 15 20 8 11 - - 0.0
24/09:30am 13.0 9.4 6.6 65 3.1 S 15 24 8 13 - - 0.0
24/09:00am 12.5 8.8 6.3 66 3.0 SSE 15 20 8 11 - - 1.0
24/08:30am 11.9 9.8 6.8 71 2.5 S 7 11 4 6 - - 1.0
24/08:00am 11.2 8.8 7.1 76 2.0 SSW 9 13 5 7 - - 1.0
24/07:30am 11.1 8.7 6.8 75 2.1 SSW 9 13 5 7 - - 1.0
24/07:00am 10.8 8.8 6.9 77 1.9 S 7 9 4 5 - - 1.0
24/06:30am 10.2 8.0 6.0 75 2.0 SSW 7 9 4 5 - - 1.0
24/06:00am 10.8 8.2 6.0 72 2.3 S 9 15 5 8 - - 1.0
24/05:30am 10.7 8.1 6.1 73 2.2 S 9 13 5 7 - - 1.0
24/05:00am 10.7 7.7 6.1 73 2.2 SSW 11 15 6 8 - - 1.0
24/04:30am 10.8 7.8 6.0 72 2.3 S 11 17 6 9 - - 1.0
24/04:00am 10.8 8.2 6.2 73 2.2 S 9 15 5 8 - - 1.0
24/03:30am 10.7 7.8 6.3 74 2.1 S 11 15 6 8 - - 1.0
24/03:00am 10.8 7.0 5.8 71 2.3 S 15 22 8 12 - - 1.0
24/02:30am 11.3 6.7 5.4 67 2.8 S 19 32 10 17 - - 1.0
24/02:00am 11.2 7.7 5.5 68 2.7 S 13 20 7 11 - - 1.0
24/01:30am 11.3 7.8 5.4 67 2.8 S 13 20 7 11 - - 1.0
24/01:00am 11.4 7.2 5.9 69 2.6 SSE 17 24 9 13 - - 1.0
24/12:30am 11.4 7.6 5.9 69 2.6 S 15 22 8 12 - - 1.0
24/12:00am 11.5 7.7 5.6 67 2.8 S 15 22 8 12 - - 1.0

Other Formats:

Comma delimited format used in spreadsheet applications
http://www.bom.gov.au/fwo/IDW60801/IDW60801.95639.axf

JavaScript Object Notation format (JSON) in row-major order
http://www.bom.gov.au/fwo/IDW60801/IDW60801.95639.json